sensor_id;sensor_type;location;lat;lon;timestamp;temperature;humidity
851;DHT22;412;51.400;7.480;2022-12-29T00:01:58;11.50;99.90
851;DHT22;412;51.400;7.480;2022-12-29T00:04:24;11.50;99.90
851;DHT22;412;51.400;7.480;2022-12-29T00:06:50;11.50;99.90
851;DHT22;412;51.400;7.480;2022-12-29T00:09:17;11.50;99.90
851;DHT22;412;51.400;7.480;2022-12-29T00:11:43;11.50;99.90
851;DHT22;412;51.400;7.480;2022-12-29T00:14:10;11.60;99.90
851;DHT22;412;51.400;7.480;2022-12-29T00:16:55;11.70;99.90
851;DHT22;412;51.400;7.480;2022-12-29T00:19:21;11.70;99.90
851;DHT22;412;51.400;7.480;2022-12-29T00:22:06;11.70;99.90
851;DHT22;412;51.400;7.480;2022-12-29T00:24:50;11.80;99.90
851;DHT22;412;51.400;7.480;2022-12-29T00:27:19;11.70;99.90
851;DHT22;412;51.400;7.480;2022-12-29T00:30:11;11.80;99.90
851;DHT22;412;51.400;7.480;2022-12-29T00:32:56;11.80;99.90
851;DHT22;412;51.400;7.480;2022-12-29T00:35:47;11.80;99.90
851;DHT22;412;51.400;7.480;2022-12-29T00:38:18;11.90;99.90
851;DHT22;412;51.400;7.480;2022-12-29T00:41:07;11.90;99.90
851;DHT22;412;51.400;7.480;2022-12-29T00:43:51;11.90;99.90
851;DHT22;412;51.400;7.480;2022-12-29T00:46:33;11.90;99.90
851;DHT22;412;51.400;7.480;2022-12-29T00:48:59;11.90;99.90
851;DHT22;412;51.400;7.480;2022-12-29T00:51:44;12.00;99.90
851;DHT22;412;51.400;7.480;2022-12-29T00:54:10;11.80;99.90
851;DHT22;412;51.400;7.480;2022-12-29T00:56:36;11.80;99.90
851;DHT22;412;51.400;7.480;2022-12-29T00:59:03;11.90;99.90
851;DHT22;412;51.400;7.480;2022-12-29T01:01:29;11.90;99.90
851;DHT22;412;51.400;7.480;2022-12-29T01:03:55;11.90;99.90
851;DHT22;412;51.400;7.480;2022-12-29T01:06:21;11.90;99.90
851;DHT22;412;51.400;7.480;2022-12-29T01:08:47;11.90;99.90
851;DHT22;412;51.400;7.480;2022-12-29T01:11:32;11.90;99.90
851;DHT22;412;51.400;7.480;2022-12-29T01:13:58;11.90;99.90
851;DHT22;412;51.400;7.480;2022-12-29T01:16:23;11.90;99.90
851;DHT22;412;51.400;7.480;2022-12-29T01:18:49;11.90;99.90
851;DHT22;412;51.400;7.480;2022-12-29T01:21:15;11.90;99.90
851;DHT22;412;51.400;7.480;2022-12-29T01:23:40;11.90;99.90
851;DHT22;412;51.400;7.480;2022-12-29T01:26:10;11.90;99.90
851;DHT22;412;51.400;7.480;2022-12-29T01:28:36;11.90;99.90
851;DHT22;412;51.400;7.480;2022-12-29T01:31:05;11.90;99.90
851;DHT22;412;51.400;7.480;2022-12-29T01:33:31;11.90;99.90
851;DHT22;412;51.400;7.480;2022-12-29T01:36:02;12.00;99.90
851;DHT22;412;51.400;7.480;2022-12-29T01:38:28;12.00;99.90
851;DHT22;412;51.400;7.480;2022-12-29T01:40:53;12.00;99.90
851;DHT22;412;51.400;7.480;2022-12-29T01:43:19;12.00;99.90
851;DHT22;412;51.400;7.480;2022-12-29T01:45:50;12.00;99.90
851;DHT22;412;51.400;7.480;2022-12-29T01:48:16;11.90;99.90
851;DHT22;412;51.400;7.480;2022-12-29T01:50:47;12.00;99.90
851;DHT22;412;51.400;7.480;2022-12-29T01:53:35;12.00;99.90
851;DHT22;412;51.400;7.480;2022-12-29T01:56:05;12.10;99.90
851;DHT22;412;51.400;7.480;2022-12-29T01:58:35;12.10;99.90
851;DHT22;412;51.400;7.480;2022-12-29T02:01:04;12.10;99.90
851;DHT22;412;51.400;7.480;2022-12-29T02:03:30;12.10;99.90
851;DHT22;412;51.400;7.480;2022-12-29T02:06:21;12.00;99.90
851;DHT22;412;51.400;7.480;2022-12-29T02:08:50;12.00;99.90
851;DHT22;412;51.400;7.480;2022-12-29T02:11:17;12.10;99.90
851;DHT22;412;51.400;7.480;2022-12-29T02:13:43;12.20;99.90
851;DHT22;412;51.400;7.480;2022-12-29T02:33:00;12.20;99.90
851;DHT22;412;51.400;7.480;2022-12-29T02:44:27;12.20;99.90
851;DHT22;412;51.400;7.480;2022-12-29T02:47:09;12.20;99.90
851;DHT22;412;51.400;7.480;2022-12-29T02:49:45;12.20;99.90
851;DHT22;412;51.400;7.480;2022-12-29T02:52:26;12.20;99.90
851;DHT22;412;51.400;7.480;2022-12-29T02:54:54;12.30;99.90
851;DHT22;412;51.400;7.480;2022-12-29T02:59:51;12.30;99.90
851;DHT22;412;51.400;7.480;2022-12-29T03:02:23;12.40;99.90
851;DHT22;412;51.400;7.480;2022-12-29T03:05:11;12.40;99.90
851;DHT22;412;51.400;7.480;2022-12-29T03:08:19;12.40;99.90
851;DHT22;412;51.400;7.480;2022-12-29T03:13:23;12.50;99.90
851;DHT22;412;51.400;7.480;2022-12-29T03:16:31;12.50;99.90
851;DHT22;412;51.400;7.480;2022-12-29T03:19:09;12.60;99.90
851;DHT22;412;51.400;7.480;2022-12-29T03:21:51;12.50;99.90
851;DHT22;412;51.400;7.480;2022-12-29T03:24:44;12.60;99.90
851;DHT22;412;51.400;7.480;2022-12-29T03:27:16;12.70;99.90
851;DHT22;412;51.400;7.480;2022-12-29T03:29:47;12.70;99.90
851;DHT22;412;51.400;7.480;2022-12-29T03:32:19;12.80;99.90
851;DHT22;412;51.400;7.480;2022-12-29T03:34:46;12.70;99.90
851;DHT22;412;51.400;7.480;2022-12-29T03:37:16;12.60;99.90
851;DHT22;412;51.400;7.480;2022-12-29T03:39:43;12.60;99.90
851;DHT22;412;51.400;7.480;2022-12-29T03:42:12;12.60;99.90
851;DHT22;412;51.400;7.480;2022-12-29T03:44:42;12.60;99.90
851;DHT22;412;51.400;7.480;2022-12-29T03:47:09;12.60;99.90
851;DHT22;412;51.400;7.480;2022-12-29T03:49:35;12.60;99.90
851;DHT22;412;51.400;7.480;2022-12-29T03:52:01;12.60;99.90
851;DHT22;412;51.400;7.480;2022-12-29T03:54:27;12.50;99.90
851;DHT22;412;51.400;7.480;2022-12-29T03:56:53;12.40;99.90
851;DHT22;412;51.400;7.480;2022-12-29T03:59:18;12.50;99.90
851;DHT22;412;51.400;7.480;2022-12-29T04:01:44;12.40;99.90
851;DHT22;412;51.400;7.480;2022-12-29T04:04:10;12.40;99.90
851;DHT22;412;51.400;7.480;2022-12-29T04:06:35;12.40;99.90
851;DHT22;412;51.400;7.480;2022-12-29T04:09:01;12.40;99.90
851;DHT22;412;51.400;7.480;2022-12-29T04:11:27;12.40;99.90
851;DHT22;412;51.400;7.480;2022-12-29T04:13:52;12.30;99.90
851;DHT22;412;51.400;7.480;2022-12-29T04:16:18;12.20;99.90
851;DHT22;412;51.400;7.480;2022-12-29T04:18:44;12.20;99.90
851;DHT22;412;51.400;7.480;2022-12-29T04:21:09;12.30;99.90
851;DHT22;412;51.400;7.480;2022-12-29T04:23:37;12.20;99.90
851;DHT22;412;51.400;7.480;2022-12-29T04:26:04;12.20;99.90
851;DHT22;412;51.400;7.480;2022-12-29T04:28:30;12.20;99.90
851;DHT22;412;51.400;7.480;2022-12-29T04:30:55;12.20;99.90
851;DHT22;412;51.400;7.480;2022-12-29T04:33:22;12.20;99.90
851;DHT22;412;51.400;7.480;2022-12-29T04:35:48;12.20;99.90
851;DHT22;412;51.400;7.480;2022-12-29T04:38:14;12.20;99.90
851;DHT22;412;51.400;7.480;2022-12-29T04:40:41;12.20;99.90
851;DHT22;412;51.400;7.480;2022-12-29T04:43:08;12.30;99.90
851;DHT22;412;51.400;7.480;2022-12-29T04:45:34;12.20;99.90
851;DHT22;412;51.400;7.480;2022-12-29T04:48:00;12.20;99.90
851;DHT22;412;51.400;7.480;2022-12-29T04:50:26;12.30;99.90
851;DHT22;412;51.400;7.480;2022-12-29T04:52:51;12.30;99.90
851;DHT22;412;51.400;7.480;2022-12-29T04:55:17;12.30;99.90
851;DHT22;412;51.400;7.480;2022-12-29T04:57:43;12.30;99.90
851;DHT22;412;51.400;7.480;2022-12-29T05:00:09;12.40;99.90
851;DHT22;412;51.400;7.480;2022-12-29T05:02:36;12.40;99.90
851;DHT22;412;51.400;7.480;2022-12-29T05:05:02;12.40;99.90
851;DHT22;412;51.400;7.480;2022-12-29T05:07:27;12.50;99.90
851;DHT22;412;51.400;7.480;2022-12-29T05:09:53;12.50;99.90
851;DHT22;412;51.400;7.480;2022-12-29T05:12:19;12.60;99.90
851;DHT22;412;51.400;7.480;2022-12-29T05:14:44;12.60;99.90
851;DHT22;412;51.400;7.480;2022-12-29T05:17:10;12.60;99.90
851;DHT22;412;51.400;7.480;2022-12-29T05:19:36;12.60;99.90
851;DHT22;412;51.400;7.480;2022-12-29T05:22:03;12.60;99.90
851;DHT22;412;51.400;7.480;2022-12-29T05:24:30;12.60;99.90
851;DHT22;412;51.400;7.480;2022-12-29T05:26:55;12.70;99.90
851;DHT22;412;51.400;7.480;2022-12-29T05:29:21;12.70;99.90
851;DHT22;412;51.400;7.480;2022-12-29T05:31:47;12.70;99.90
851;DHT22;412;51.400;7.480;2022-12-29T05:34:12;12.70;99.90
851;DHT22;412;51.400;7.480;2022-12-29T05:36:38;12.70;99.90
851;DHT22;412;51.400;7.480;2022-12-29T05:39:04;12.80;99.90
851;DHT22;412;51.400;7.480;2022-12-29T05:41:30;12.90;99.90
851;DHT22;412;51.400;7.480;2022-12-29T05:43:56;12.90;99.90
851;DHT22;412;51.400;7.480;2022-12-29T05:46:22;12.90;99.90
851;DHT22;412;51.400;7.480;2022-12-29T05:48:47;13.00;99.90
851;DHT22;412;51.400;7.480;2022-12-29T05:51:13;13.00;99.90
851;DHT22;412;51.400;7.480;2022-12-29T05:53:38;13.00;99.90
851;DHT22;412;51.400;7.480;2022-12-29T05:56:04;13.10;99.90
851;DHT22;412;51.400;7.480;2022-12-29T05:58:30;13.00;99.90
851;DHT22;412;51.400;7.480;2022-12-29T06:00:56;13.10;99.90
851;DHT22;412;51.400;7.480;2022-12-29T06:03:21;13.10;99.90
851;DHT22;412;51.400;7.480;2022-12-29T06:05:47;13.10;99.90
851;DHT22;412;51.400;7.480;2022-12-29T06:08:13;13.10;99.90
851;DHT22;412;51.400;7.480;2022-12-29T06:10:38;13.10;99.90
851;DHT22;412;51.400;7.480;2022-12-29T06:13:04;13.10;99.90
851;DHT22;412;51.400;7.480;2022-12-29T06:15:34;13.10;99.90
851;DHT22;412;51.400;7.480;2022-12-29T06:18:00;13.10;99.90
851;DHT22;412;51.400;7.480;2022-12-29T06:20:25;13.10;99.90
851;DHT22;412;51.400;7.480;2022-12-29T06:22:51;13.00;99.90
851;DHT22;412;51.400;7.480;2022-12-29T06:25:17;13.00;99.90
851;DHT22;412;51.400;7.480;2022-12-29T06:27:43;13.00;99.90
851;DHT22;412;51.400;7.480;2022-12-29T06:30:09;13.00;99.90
851;DHT22;412;51.400;7.480;2022-12-29T06:32:35;13.00;99.90
851;DHT22;412;51.400;7.480;2022-12-29T06:35:03;13.00;99.90
851;DHT22;412;51.400;7.480;2022-12-29T06:37:29;13.00;99.90
851;DHT22;412;51.400;7.480;2022-12-29T06:39:54;13.00;99.90
851;DHT22;412;51.400;7.480;2022-12-29T06:42:20;13.00;99.90
851;DHT22;412;51.400;7.480;2022-12-29T06:44:46;13.00;99.90
851;DHT22;412;51.400;7.480;2022-12-29T06:47:12;13.00;99.90
851;DHT22;412;51.400;7.480;2022-12-29T06:49:37;13.00;99.90
851;DHT22;412;51.400;7.480;2022-12-29T06:52:03;13.00;99.90
851;DHT22;412;51.400;7.480;2022-12-29T06:54:32;13.00;99.90
851;DHT22;412;51.400;7.480;2022-12-29T06:56:59;13.00;99.90
851;DHT22;412;51.400;7.480;2022-12-29T06:59:25;13.00;99.90
851;DHT22;412;51.400;7.480;2022-12-29T07:01:51;13.10;99.90
851;DHT22;412;51.400;7.480;2022-12-29T07:04:17;13.00;99.90
851;DHT22;412;51.400;7.480;2022-12-29T07:06:43;13.00;99.90
851;DHT22;412;51.400;7.480;2022-12-29T07:09:09;13.00;99.90
851;DHT22;412;51.400;7.480;2022-12-29T07:11:35;13.10;99.90
851;DHT22;412;51.400;7.480;2022-12-29T07:14:01;13.10;99.90
851;DHT22;412;51.400;7.480;2022-12-29T07:16:27;13.00;99.90
851;DHT22;412;51.400;7.480;2022-12-29T07:18:55;13.10;99.90
851;DHT22;412;51.400;7.480;2022-12-29T07:21:21;13.10;99.90
851;DHT22;412;51.400;7.480;2022-12-29T07:23:46;13.20;99.90
851;DHT22;412;51.400;7.480;2022-12-29T07:26:14;13.20;99.90
851;DHT22;412;51.400;7.480;2022-12-29T07:28:43;13.10;99.90
851;DHT22;412;51.400;7.480;2022-12-29T07:31:20;13.10;99.90
851;DHT22;412;51.400;7.480;2022-12-29T07:33:46;13.10;99.90
851;DHT22;412;51.400;7.480;2022-12-29T07:36:13;13.10;99.90
851;DHT22;412;51.400;7.480;2022-12-29T07:38:40;13.00;99.90
851;DHT22;412;51.400;7.480;2022-12-29T07:41:06;13.10;99.90
851;DHT22;412;51.400;7.480;2022-12-29T07:43:32;13.10;99.90
851;DHT22;412;51.400;7.480;2022-12-29T07:45:57;13.20;99.90
851;DHT22;412;51.400;7.480;2022-12-29T07:48:23;13.20;99.90
851;DHT22;412;51.400;7.480;2022-12-29T07:50:49;13.20;99.90
851;DHT22;412;51.400;7.480;2022-12-29T07:53:15;13.20;99.90
851;DHT22;412;51.400;7.480;2022-12-29T07:55:41;13.20;99.90
851;DHT22;412;51.400;7.480;2022-12-29T07:58:07;13.10;99.90
851;DHT22;412;51.400;7.480;2022-12-29T08:00:33;13.20;99.90
851;DHT22;412;51.400;7.480;2022-12-29T08:02:58;13.00;99.90
851;DHT22;412;51.400;7.480;2022-12-29T08:05:24;13.00;99.90
851;DHT22;412;51.400;7.480;2022-12-29T08:07:50;13.00;99.90
851;DHT22;412;51.400;7.480;2022-12-29T08:10:16;13.00;99.90
851;DHT22;412;51.400;7.480;2022-12-29T08:12:43;12.90;99.90
851;DHT22;412;51.400;7.480;2022-12-29T08:15:11;12.80;99.90
851;DHT22;412;51.400;7.480;2022-12-29T08:17:37;12.80;99.90
851;DHT22;412;51.400;7.480;2022-12-29T08:20:03;12.90;99.90
851;DHT22;412;51.400;7.480;2022-12-29T08:22:29;12.80;99.90
851;DHT22;412;51.400;7.480;2022-12-29T08:24:55;12.90;99.90
851;DHT22;412;51.400;7.480;2022-12-29T08:27:21;13.00;99.90
851;DHT22;412;51.400;7.480;2022-12-29T08:29:47;13.00;99.90
851;DHT22;412;51.400;7.480;2022-12-29T08:32:13;12.90;99.90
851;DHT22;412;51.400;7.480;2022-12-29T08:34:39;12.90;99.90
851;DHT22;412;51.400;7.480;2022-12-29T08:37:05;12.90;99.90
851;DHT22;412;51.400;7.480;2022-12-29T08:39:30;12.90;99.90
851;DHT22;412;51.400;7.480;2022-12-29T08:41:56;12.90;99.90
851;DHT22;412;51.400;7.480;2022-12-29T08:44:22;12.90;99.90
851;DHT22;412;51.400;7.480;2022-12-29T08:46:47;12.90;99.90
851;DHT22;412;51.400;7.480;2022-12-29T08:49:13;12.90;99.90
851;DHT22;412;51.400;7.480;2022-12-29T08:51:39;12.90;99.90
851;DHT22;412;51.400;7.480;2022-12-29T08:54:05;12.90;99.90
851;DHT22;412;51.400;7.480;2022-12-29T08:56:31;13.20;99.90
851;DHT22;412;51.400;7.480;2022-12-29T08:58:57;13.50;99.90
851;DHT22;412;51.400;7.480;2022-12-29T09:01:23;13.60;99.90
851;DHT22;412;51.400;7.480;2022-12-29T09:03:48;13.90;99.90
851;DHT22;412;51.400;7.480;2022-12-29T09:06:15;14.20;99.90
851;DHT22;412;51.400;7.480;2022-12-29T09:08:42;14.50;99.90
851;DHT22;412;51.400;7.480;2022-12-29T09:11:09;14.60;99.90
851;DHT22;412;51.400;7.480;2022-12-29T09:13:35;14.70;99.90
851;DHT22;412;51.400;7.480;2022-12-29T09:16:01;14.90;99.90
851;DHT22;412;51.400;7.480;2022-12-29T09:18:27;15.00;99.90
851;DHT22;412;51.400;7.480;2022-12-29T09:21:00;14.90;99.90
851;DHT22;412;51.400;7.480;2022-12-29T09:23:27;14.70;99.90
851;DHT22;412;51.400;7.480;2022-12-29T09:25:53;14.70;99.90
851;DHT22;412;51.400;7.480;2022-12-29T09:28:19;14.60;99.90
851;DHT22;412;51.400;7.480;2022-12-29T09:30:45;14.40;99.90
851;DHT22;412;51.400;7.480;2022-12-29T09:33:11;14.40;99.90
851;DHT22;412;51.400;7.480;2022-12-29T09:35:36;14.50;99.90
851;DHT22;412;51.400;7.480;2022-12-29T09:38:02;14.60;99.90
851;DHT22;412;51.400;7.480;2022-12-29T09:40:29;14.70;99.90
851;DHT22;412;51.400;7.480;2022-12-29T09:45:40;15.90;99.90
851;DHT22;412;51.400;7.480;2022-12-29T09:48:17;16.40;99.90
851;DHT22;412;51.400;7.480;2022-12-29T09:50:48;16.50;99.90
851;DHT22;412;51.400;7.480;2022-12-29T09:53:28;16.60;99.90
851;DHT22;412;51.400;7.480;2022-12-29T09:55:57;16.60;99.90
851;DHT22;412;51.400;7.480;2022-12-29T09:58:36;16.30;99.90
851;DHT22;412;51.400;7.480;2022-12-29T10:01:07;15.70;99.90
851;DHT22;412;51.400;7.480;2022-12-29T10:03:49;15.10;99.90
851;DHT22;412;51.400;7.480;2022-12-29T10:09:08;14.30;99.90
851;DHT22;412;51.400;7.480;2022-12-29T10:23:09;13.20;99.90
851;DHT22;412;51.400;7.480;2022-12-29T10:25:39;13.10;99.90
851;DHT22;412;51.400;7.480;2022-12-29T10:28:19;13.00;99.90
851;DHT22;412;51.400;7.480;2022-12-29T10:30:47;13.10;99.90
851;DHT22;412;51.400;7.480;2022-12-29T10:33:35;13.30;99.90
851;DHT22;412;51.400;7.480;2022-12-29T10:36:34;13.70;99.90
851;DHT22;412;51.400;7.480;2022-12-29T10:39:23;14.20;99.90
851;DHT22;412;51.400;7.480;2022-12-29T10:44:18;14.20;99.10
851;DHT22;412;51.400;7.480;2022-12-29T10:46:57;14.00;99.00
851;DHT22;412;51.400;7.480;2022-12-29T10:49:26;13.90;99.20
851;DHT22;412;51.400;7.480;2022-12-29T10:51:56;13.80;99.50
851;DHT22;412;51.400;7.480;2022-12-29T10:59:48;13.60;99.50
851;DHT22;412;51.400;7.480;2022-12-29T11:02:26;13.60;99.90
851;DHT22;412;51.400;7.480;2022-12-29T11:07:41;13.60;99.00
851;DHT22;412;51.400;7.480;2022-12-29T11:10:30;13.60;99.80
851;DHT22;412;51.400;7.480;2022-12-29T11:13:10;13.60;99.90
851;DHT22;412;51.400;7.480;2022-12-29T11:15:47;13.60;99.20
851;DHT22;412;51.400;7.480;2022-12-29T11:18:34;13.60;99.20
851;DHT22;412;51.400;7.480;2022-12-29T11:21:04;13.60;98.80
851;DHT22;412;51.400;7.480;2022-12-29T11:23:36;13.60;99.30
851;DHT22;412;51.400;7.480;2022-12-29T11:28:42;13.50;99.60
851;DHT22;412;51.400;7.480;2022-12-29T11:31:09;13.50;99.00
851;DHT22;412;51.400;7.480;2022-12-29T11:33:36;13.40;99.90
851;DHT22;412;51.400;7.480;2022-12-29T11:36:16;13.40;99.90
851;DHT22;412;51.400;7.480;2022-12-29T11:38:48;13.30;99.80
851;DHT22;412;51.400;7.480;2022-12-29T11:41:23;13.20;99.90
851;DHT22;412;51.400;7.480;2022-12-29T11:43:52;13.20;99.90
851;DHT22;412;51.400;7.480;2022-12-29T11:46:34;13.20;99.90
851;DHT22;412;51.400;7.480;2022-12-29T11:49:02;13.20;99.90
851;DHT22;412;51.400;7.480;2022-12-29T11:51:42;13.10;99.90
851;DHT22;412;51.400;7.480;2022-12-29T11:54:16;13.10;99.90
851;DHT22;412;51.400;7.480;2022-12-29T11:56:43;13.10;99.90
851;DHT22;412;51.400;7.480;2022-12-29T12:01:58;13.00;99.90
851;DHT22;412;51.400;7.480;2022-12-29T12:04:31;13.00;99.90
851;DHT22;412;51.400;7.480;2022-12-29T12:09:36;13.00;99.90
851;DHT22;412;51.400;7.480;2022-12-29T12:12:03;13.00;99.90
851;DHT22;412;51.400;7.480;2022-12-29T12:15:13;13.00;99.90
851;DHT22;412;51.400;7.480;2022-12-29T12:17:50;13.00;99.90
851;DHT22;412;51.400;7.480;2022-12-29T12:20:26;13.00;99.90
851;DHT22;412;51.400;7.480;2022-12-29T12:23:16;13.00;99.90
851;DHT22;412;51.400;7.480;2022-12-29T12:25:59;12.90;99.90
851;DHT22;412;51.400;7.480;2022-12-29T12:34:01;12.80;99.90
851;DHT22;412;51.400;7.480;2022-12-29T12:36:47;12.80;99.90
851;DHT22;412;51.400;7.480;2022-12-29T12:48:07;12.90;99.90
851;DHT22;412;51.400;7.480;2022-12-29T12:56:27;12.90;99.90
851;DHT22;412;51.400;7.480;2022-12-29T13:07:29;12.70;99.90
851;DHT22;412;51.400;7.480;2022-12-29T13:15:50;12.80;99.90
851;DHT22;412;51.400;7.480;2022-12-29T13:30:10;12.70;99.90
851;DHT22;412;51.400;7.480;2022-12-29T13:38:00;12.80;99.90
851;DHT22;412;51.400;7.480;2022-12-29T13:40:30;12.80;99.90
851;DHT22;412;51.400;7.480;2022-12-29T13:43:00;12.80;99.90
851;DHT22;412;51.400;7.480;2022-12-29T13:45:29;12.70;99.90
851;DHT22;412;51.400;7.480;2022-12-29T13:48:10;12.70;99.90
851;DHT22;412;51.400;7.480;2022-12-29T13:50:40;12.70;99.90
851;DHT22;412;51.400;7.480;2022-12-29T13:55:51;12.70;99.90
851;DHT22;412;51.400;7.480;2022-12-29T13:58:31;12.70;99.90
851;DHT22;412;51.400;7.480;2022-12-29T14:09:03;12.70;99.90
851;DHT22;412;51.400;7.480;2022-12-29T14:11:40;12.70;99.90
851;DHT22;412;51.400;7.480;2022-12-29T14:16:37;12.70;99.90
851;DHT22;412;51.400;7.480;2022-12-29T14:19:13;12.70;99.90
851;DHT22;412;51.400;7.480;2022-12-29T14:21:40;12.70;99.90
851;DHT22;412;51.400;7.480;2022-12-29T14:24:26;12.70;99.90
851;DHT22;412;51.400;7.480;2022-12-29T14:26:52;12.70;99.90
851;DHT22;412;51.400;7.480;2022-12-29T14:31:50;12.70;99.90
851;DHT22;412;51.400;7.480;2022-12-29T14:34:27;12.80;99.90
851;DHT22;412;51.400;7.480;2022-12-29T14:37:02;12.80;99.90
851;DHT22;412;51.400;7.480;2022-12-29T14:39:42;12.80;99.90
851;DHT22;412;51.400;7.480;2022-12-29T14:42:14;12.80;99.90
851;DHT22;412;51.400;7.480;2022-12-29T14:45:01;12.80;99.80
851;DHT22;412;51.400;7.480;2022-12-29T14:50:07;12.70;98.80
851;DHT22;412;51.400;7.480;2022-12-29T14:57:58;12.70;98.70
851;DHT22;412;51.400;7.480;2022-12-29T15:00:29;12.60;98.70
851;DHT22;412;51.400;7.480;2022-12-29T15:06:07;12.50;99.20
851;DHT22;412;51.400;7.480;2022-12-29T15:11:31;12.40;99.30
851;DHT22;412;51.400;7.480;2022-12-29T15:16:54;12.50;99.80
851;DHT22;412;51.400;7.480;2022-12-29T15:19:22;12.50;99.90
851;DHT22;412;51.400;7.480;2022-12-29T15:21:48;12.50;99.30
851;DHT22;412;51.400;7.480;2022-12-29T15:24:14;12.50;99.30
851;DHT22;412;51.400;7.480;2022-12-29T15:26:42;12.40;99.60
851;DHT22;412;51.400;7.480;2022-12-29T15:34:47;12.40;99.60
851;DHT22;412;51.400;7.480;2022-12-29T15:39:45;12.40;99.20
851;DHT22;412;51.400;7.480;2022-12-29T15:45:12;12.40;99.20
851;DHT22;412;51.400;7.480;2022-12-29T15:47:40;12.40;99.30
851;DHT22;412;51.400;7.480;2022-12-29T15:50:28;12.40;99.20
851;DHT22;412;51.400;7.480;2022-12-29T15:52:56;12.40;99.20
851;DHT22;412;51.400;7.480;2022-12-29T15:55:31;12.40;99.30
851;DHT22;412;51.400;7.480;2022-12-29T15:58:00;12.40;99.50
851;DHT22;412;51.400;7.480;2022-12-29T16:00:29;12.40;99.60
851;DHT22;412;51.400;7.480;2022-12-29T16:02:58;12.40;99.60
851;DHT22;412;51.400;7.480;2022-12-29T16:05:24;12.40;99.50
851;DHT22;412;51.400;7.480;2022-12-29T16:07:58;12.40;99.40
851;DHT22;412;51.400;7.480;2022-12-29T16:10:35;12.40;99.60
851;DHT22;412;51.400;7.480;2022-12-29T16:13:15;12.30;99.90
851;DHT22;412;51.400;7.480;2022-12-29T16:15:45;12.30;99.80
851;DHT22;412;51.400;7.480;2022-12-29T16:18:22;12.30;99.90
851;DHT22;412;51.400;7.480;2022-12-29T16:20:49;12.30;99.90
851;DHT22;412;51.400;7.480;2022-12-29T16:23:22;12.20;99.60
851;DHT22;412;51.400;7.480;2022-12-29T16:25:49;12.20;99.90
851;DHT22;412;51.400;7.480;2022-12-29T16:28:21;12.10;99.60
851;DHT22;412;51.400;7.480;2022-12-29T16:31:06;12.10;99.50
851;DHT22;412;51.400;7.480;2022-12-29T16:33:39;12.10;99.80
851;DHT22;412;51.400;7.480;2022-12-29T16:36:51;12.10;99.90
851;DHT22;412;51.400;7.480;2022-12-29T16:39:23;12.10;99.90
851;DHT22;412;51.400;7.480;2022-12-29T16:41:51;12.10;99.90
851;DHT22;412;51.400;7.480;2022-12-29T16:44:23;12.20;99.80
851;DHT22;412;51.400;7.480;2022-12-29T16:49:39;12.20;99.30
851;DHT22;412;51.400;7.480;2022-12-29T16:52:21;12.20;98.90
851;DHT22;412;51.400;7.480;2022-12-29T16:54:54;12.20;99.10
851;DHT22;412;51.400;7.480;2022-12-29T16:57:23;12.20;99.00
851;DHT22;412;51.400;7.480;2022-12-29T16:59:52;12.30;99.00
851;DHT22;412;51.400;7.480;2022-12-29T17:02:21;12.20;98.90
851;DHT22;412;51.400;7.480;2022-12-29T17:04:48;12.20;99.40
851;DHT22;412;51.400;7.480;2022-12-29T17:07:17;12.20;99.20
851;DHT22;412;51.400;7.480;2022-12-29T17:09:43;12.20;99.00
851;DHT22;412;51.400;7.480;2022-12-29T17:12:13;12.20;99.10
851;DHT22;412;51.400;7.480;2022-12-29T17:14:41;12.20;99.20
851;DHT22;412;51.400;7.480;2022-12-29T17:17:33;12.20;99.20
851;DHT22;412;51.400;7.480;2022-12-29T17:20:06;12.10;99.10
851;DHT22;412;51.400;7.480;2022-12-29T17:22:32;12.10;99.50
851;DHT22;412;51.400;7.480;2022-12-29T17:25:00;12.10;99.70
851;DHT22;412;51.400;7.480;2022-12-29T17:27:33;12.10;99.70
851;DHT22;412;51.400;7.480;2022-12-29T17:30:13;12.10;99.90
851;DHT22;412;51.400;7.480;2022-12-29T17:32:40;12.00;99.80
851;DHT22;412;51.400;7.480;2022-12-29T17:35:14;12.00;99.90
851;DHT22;412;51.400;7.480;2022-12-29T17:37:40;12.00;99.90
851;DHT22;412;51.400;7.480;2022-12-29T17:40:09;12.00;99.90
851;DHT22;412;51.400;7.480;2022-12-29T17:42:39;12.00;99.90
851;DHT22;412;51.400;7.480;2022-12-29T17:45:16;12.00;99.90
851;DHT22;412;51.400;7.480;2022-12-29T17:47:43;12.00;99.90
851;DHT22;412;51.400;7.480;2022-12-29T17:50:13;12.10;99.90
851;DHT22;412;51.400;7.480;2022-12-29T17:52:40;12.20;99.90
851;DHT22;412;51.400;7.480;2022-12-29T17:55:15;12.20;99.90
851;DHT22;412;51.400;7.480;2022-12-29T17:57:41;12.20;99.90
851;DHT22;412;51.400;7.480;2022-12-29T18:00:20;12.20;99.90
851;DHT22;412;51.400;7.480;2022-12-29T18:02:46;12.00;99.90
851;DHT22;412;51.400;7.480;2022-12-29T18:05:27;12.00;99.90
851;DHT22;412;51.400;7.480;2022-12-29T18:07:55;11.80;99.90
851;DHT22;412;51.400;7.480;2022-12-29T18:10:22;11.80;99.90
851;DHT22;412;51.400;7.480;2022-12-29T18:12:50;11.90;99.90
851;DHT22;412;51.400;7.480;2022-12-29T18:15:30;11.80;99.90
851;DHT22;412;51.400;7.480;2022-12-29T18:20:59;11.70;99.90
851;DHT22;412;51.400;7.480;2022-12-29T18:23:29;11.70;99.90
851;DHT22;412;51.400;7.480;2022-12-29T18:28:40;11.60;99.90
851;DHT22;412;51.400;7.480;2022-12-29T18:31:15;11.60;99.90
851;DHT22;412;51.400;7.480;2022-12-29T18:33:41;11.70;99.90
851;DHT22;412;51.400;7.480;2022-12-29T18:36:11;11.70;99.90
851;DHT22;412;51.400;7.480;2022-12-29T18:38:37;11.70;99.90
851;DHT22;412;51.400;7.480;2022-12-29T18:41:03;11.60;99.90
851;DHT22;412;51.400;7.480;2022-12-29T18:43:29;11.60;99.90
851;DHT22;412;51.400;7.480;2022-12-29T18:45:55;11.50;99.90
851;DHT22;412;51.400;7.480;2022-12-29T18:48:20;11.50;99.90
851;DHT22;412;51.400;7.480;2022-12-29T18:50:47;11.50;99.90
851;DHT22;412;51.400;7.480;2022-12-29T18:53:23;11.50;99.90
851;DHT22;412;51.400;7.480;2022-12-29T18:55:50;11.50;99.90
851;DHT22;412;51.400;7.480;2022-12-29T18:58:16;11.50;99.90
851;DHT22;412;51.400;7.480;2022-12-29T19:00:42;11.50;99.90
851;DHT22;412;51.400;7.480;2022-12-29T19:03:11;11.40;99.90
851;DHT22;412;51.400;7.480;2022-12-29T19:05:39;11.30;99.90
851;DHT22;412;51.400;7.480;2022-12-29T19:08:06;11.30;99.90
851;DHT22;412;51.400;7.480;2022-12-29T19:10:33;11.30;99.90
851;DHT22;412;51.400;7.480;2022-12-29T19:12:59;11.30;99.90
851;DHT22;412;51.400;7.480;2022-12-29T19:15:28;11.20;99.90
851;DHT22;412;51.400;7.480;2022-12-29T19:17:56;11.10;99.90
851;DHT22;412;51.400;7.480;2022-12-29T19:20:35;11.00;99.90
851;DHT22;412;51.400;7.480;2022-12-29T19:23:04;11.10;99.90
851;DHT22;412;51.400;7.480;2022-12-29T19:25:31;11.10;99.90
851;DHT22;412;51.400;7.480;2022-12-29T19:27:57;11.10;99.90
851;DHT22;412;51.400;7.480;2022-12-29T19:30:23;11.10;99.90
851;DHT22;412;51.400;7.480;2022-12-29T19:32:51;10.90;99.90
851;DHT22;412;51.400;7.480;2022-12-29T19:35:19;10.90;99.90
851;DHT22;412;51.400;7.480;2022-12-29T19:37:45;10.90;99.90
851;DHT22;412;51.400;7.480;2022-12-29T19:40:17;10.90;99.90
851;DHT22;412;51.400;7.480;2022-12-29T19:42:43;10.90;99.90
851;DHT22;412;51.400;7.480;2022-12-29T19:45:09;10.90;99.90